Time;durP1;ratioP1;P1;durP2;ratioP2;P2;SDS_P1;SDS_P2;PMS_P1;PMS_P2;Temp;Humidity;BMP_temperature;BMP_pressure;BME280_temperature;BME280_humidity;BME280_pressure;Samples;Min_cycle;Max_cycle;Signal;HPM_P1;HPM_P2
2023/09/26 00:00:21;;;;;;;2.88;1.73;;;20.70;96.70;;;;;;5025017;28;20151;-78
2023/09/26 00:02:53;;;;;;;3.38;2.03;;;20.70;96.70;;;;;;5024724;28;20052;-79
2023/09/26 00:05:23;;;;;;;3.53;2.13;;;20.70;96.70;;;;;;5023638;28;20729;-79
2023/09/26 00:07:52;;;;;;;6.88;2.60;;;20.50;96.70;;;;;;5029186;28;20041;-78
2023/09/26 00:10:20;;;;;;;3.50;1.90;;;20.40;96.70;;;;;;5025463;28;20056;-79
2023/09/26 00:12:49;;;;;;;3.30;2.13;;;20.50;96.70;;;;;;5025036;28;20037;-79
2023/09/26 00:15:17;;;;;;;3.72;2.00;;;20.70;96.70;;;;;;5027004;28;20457;-78
2023/09/26 00:17:45;;;;;;;4.75;2.15;;;20.70;96.70;;;;;;5007154;28;20067;-79
2023/09/26 00:20:17;;;;;;;5.50;2.20;;;20.80;96.70;;;;;;5024376;28;20041;-79
2023/09/26 00:22:46;;;;;;;3.67;1.90;;;20.70;96.70;;;;;;5022905;28;20055;-79
2023/09/26 00:25:14;;;;;;;5.15;2.38;;;20.80;96.70;;;;;;5029396;28;20091;-79
2023/09/26 00:27:43;;;;;;;3.20;1.83;;;20.90;96.70;;;;;;5027404;28;20057;-78
2023/09/26 00:30:12;;;;;;;3.85;2.20;;;20.70;96.70;;;;;;5023296;28;20060;-78
2023/09/26 00:32:40;;;;;;;4.75;2.30;;;20.50;96.70;;;;;;5025275;28;20522;-79
2023/09/26 00:35:11;;;;;;;5.45;2.13;;;20.50;96.70;;;;;;5025508;28;20044;-79
2023/09/26 00:37:42;;;;;;;4.65;2.13;;;20.60;96.70;;;;;;5030247;28;20711;-79
2023/09/26 00:40:16;;;;;;;4.47;2.20;;;20.70;96.70;;;;;;5028966;28;20046;-79
2023/09/26 00:42:44;;;;;;;3.83;2.08;;;20.60;96.70;;;;;;5014707;28;20067;-79
2023/09/26 00:45:13;;;;;;;3.00;2.35;;;20.50;96.70;;;;;;5006825;28;21029;-79
2023/09/26 00:47:42;;;;;;;3.35;2.15;;;20.50;96.70;;;;;;5023907;28;20109;-79
2023/09/26 00:50:13;;;;;;;4.32;2.10;;;20.50;96.70;;;;;;5018228;28;20132;-79
2023/09/26 00:52:46;;;;;;;4.63;2.30;;;20.50;96.70;;;;;;5022972;28;20057;-79
2023/09/26 00:55:18;;;;;;;4.32;1.92;;;20.60;96.70;;;;;;5008349;28;20050;-80
2023/09/26 00:57:47;;;;;;;4.32;2.17;;;20.50;96.70;;;;;;5008767;28;20064;-79
2023/09/26 01:00:19;;;;;;;3.15;2.20;;;20.40;96.70;;;;;;5010846;28;20131;-77
2023/09/26 01:02:48;;;;;;;4.03;2.08;;;20.30;96.70;;;;;;5023776;28;20047;-78
2023/09/26 01:05:16;;;;;;;3.97;2.05;;;20.30;96.70;;;;;;5024093;28;20088;-79
2023/09/26 01:07:47;;;;;;;4.40;2.72;;;20.20;96.70;;;;;;5022488;28;20060;-80
2023/09/26 01:10:15;;;;;;;3.13;2.30;;;20.10;96.70;;;;;;5006800;28;20499;-80
2023/09/26 01:12:44;;;;;;;6.97;3.13;;;20.10;96.70;;;;;;5023448;28;20046;-78
2023/09/26 01:15:12;;;;;;;4.10;2.63;;;20.20;96.70;;;;;;5006827;28;20076;-80
2023/09/26 01:17:41;;;;;;;4.65;3.03;;;20.20;96.70;;;;;;5024436;28;20038;-79
2023/09/26 01:20:16;;;;;;;6.60;3.85;;;20.20;96.70;;;;;;5021754;28;20586;-79
2023/09/26 01:22:47;;;;;;;5.25;3.15;;;20.20;96.70;;;;;;5006021;28;20056;-77
2023/09/26 01:25:17;;;;;;;5.57;2.72;;;20.10;96.70;;;;;;5009639;28;20076;-78
2023/09/26 01:27:46;;;;;;;5.13;3.15;;;20.00;96.70;;;;;;5030370;28;20049;-78
2023/09/26 01:30:15;;;;;;;4.88;3.13;;;20.10;96.70;;;;;;5010838;28;20045;-79
2023/09/26 01:32:44;;;;;;;5.32;2.42;;;20.20;96.70;;;;;;5027959;28;20057;-78
2023/09/26 01:35:12;;;;;;;4.57;2.92;;;20.10;96.70;;;;;;5026495;28;20068;-79
2023/09/26 01:37:40;;;;;;;5.38;3.15;;;20.10;96.70;;;;;;5010194;28;20137;-79
2023/09/26 01:40:10;;;;;;;4.35;2.88;;;20.10;96.70;;;;;;5006952;28;20430;-79
2023/09/26 01:42:41;;;;;;;6.05;3.08;;;20.10;96.70;;;;;;5017084;28;20511;-78
2023/09/26 01:45:10;;;;;;;3.50;2.40;;;20.10;96.70;;;;;;5010458;28;20625;-79
2023/09/26 01:47:45;;;;;;;4.75;2.78;;;20.10;96.70;;;;;;5009175;28;20454;-76
2023/09/26 01:50:15;;;;;;;6.32;3.22;;;20.00;96.70;;;;;;5026065;28;20049;-79
2023/09/26 01:52:44;;;;;;;4.82;2.63;;;20.00;96.70;;;;;;5033878;28;20053;-79
2023/09/26 01:55:14;;;;;;;5.15;2.90;;;20.00;96.70;;;;;;5031626;28;20052;-78
2023/09/26 01:57:43;;;;;;;8.57;3.50;;;19.90;96.70;;;;;;5008140;28;20080;-78
2023/09/26 02:00:13;;;;;;;3.60;2.50;;;19.80;96.70;;;;;;5012537;28;20083;-78
2023/09/26 02:02:42;;;;;;;3.65;2.50;;;19.60;96.70;;;;;;5031396;28;20049;-79
2023/09/26 02:05:11;;;;;;;3.97;2.63;;;19.70;96.70;;;;;;5025363;28;20389;-79
2023/09/26 02:07:40;;;;;;;17.67;2.90;;;19.70;96.70;;;;;;5025939;28;20045;-78
2023/09/26 02:10:09;;;;;;;3.45;2.30;;;19.80;96.70;;;;;;5026988;28;20554;-80
2023/09/26 02:12:39;;;;;;;5.40;3.28;;;19.90;96.70;;;;;;5025778;28;20457;-78
2023/09/26 02:15:11;;;;;;;5.22;2.63;;;19.90;96.70;;;;;;5025732;28;20115;-78
2023/09/26 02:17:40;;;;;;;4.20;2.90;;;19.80;96.70;;;;;;5028930;28;20561;-79
2023/09/26 02:20:14;;;;;;;4.53;3.03;;;19.70;96.70;;;;;;5031301;28;20099;-79
2023/09/26 02:22:44;;;;;;;4.13;2.53;;;19.60;96.70;;;;;;5012434;28;20045;-79
2023/09/26 02:25:13;;;;;;;6.05;3.00;;;19.50;96.70;;;;;;5008040;28;20042;-78
2023/09/26 02:27:43;;;;;;;3.55;2.40;;;19.40;96.70;;;;;;5016067;28;20053;-79
2023/09/26 02:30:14;;;;;;;4.10;2.53;;;19.40;96.70;;;;;;5027398;28;20498;-78
2023/09/26 02:32:43;;;;;;;4.10;2.55;;;19.40;96.70;;;;;;5028954;28;20053;-79
2023/09/26 02:35:12;;;;;;;4.38;2.17;;;19.40;96.70;;;;;;5025288;28;20507;-78
2023/09/26 02:37:41;;;;;;;3.42;1.95;;;19.50;96.70;;;;;;5009880;28;20139;-79
2023/09/26 02:40:10;;;;;;;4.32;2.08;;;19.60;96.70;;;;;;5025634;28;20498;-79
2023/09/26 02:42:40;;;;;;;5.28;2.45;;;19.60;96.70;;;;;;5026032;28;20050;-78
2023/09/26 02:45:09;;;;;;;3.17;2.15;;;19.70;96.70;;;;;;5025019;28;20052;-79
2023/09/26 02:47:39;;;;;;;3.85;2.38;;;19.60;96.70;;;;;;5031209;28;20100;-78
2023/09/26 02:50:08;;;;;;;4.00;2.33;;;19.60;96.70;;;;;;5026227;28;20125;-78
2023/09/26 02:52:37;;;;;;;3.78;2.28;;;19.60;96.70;;;;;;5030741;28;20108;-78
2023/09/26 02:55:07;;;;;;;4.28;2.50;;;19.60;96.70;;;;;;5030852;28;20111;-79
2023/09/26 02:57:35;;;;;;;4.40;2.30;;;19.50;96.70;;;;;;5026924;28;20055;-78
2023/09/26 03:00:12;;;;;;;3.65;2.42;;;19.60;96.70;;;;;;5027992;28;20046;-79
2023/09/26 03:02:42;;;;;;;4.30;2.42;;;19.50;96.70;;;;;;5025435;28;20047;-78
2023/09/26 03:05:10;;;;;;;4.10;2.63;;;19.40;96.70;;;;;;5030807;28;20053;-79
2023/09/26 03:07:39;;;;;;;3.35;2.67;;;19.40;96.70;;;;;;5024509;28;20045;-79
2023/09/26 03:10:08;;;;;;;4.82;2.67;;;19.50;96.70;;;;;;5030981;28;20041;-78
2023/09/26 03:12:36;;;;;;;7.55;3.00;;;19.50;96.70;;;;;;5026672;28;20045;-78
2023/09/26 03:15:06;;;;;;;5.30;2.72;;;19.40;96.70;;;;;;5025273;28;20072;-78
2023/09/26 03:17:34;;;;;;;5.32;2.85;;;19.30;96.70;;;;;;5012244;28;20455;-78
2023/09/26 03:20:08;;;;;;;3.53;2.22;;;19.30;96.70;;;;;;5024454;28;20045;-79
2023/09/26 03:22:37;;;;;;;3.58;2.15;;;19.30;96.70;;;;;;5030955;28;20049;-77
2023/09/26 03:25:06;;;;;;;4.57;3.08;;;19.20;96.70;;;;;;5026917;28;20042;-79
2023/09/26 03:27:34;;;;;;;3.90;2.72;;;19.30;96.70;;;;;;5022961;28;20163;-79
2023/09/26 03:30:03;;;;;;;5.05;2.85;;;19.00;96.70;;;;;;5030827;28;20124;-78
2023/09/26 03:32:32;;;;;;;4.07;2.53;;;19.00;96.70;;;;;;5024126;28;20064;-78
2023/09/26 03:35:01;;;;;;;5.13;2.60;;;18.90;96.70;;;;;;5029689;28;20037;-78
2023/09/26 03:37:31;;;;;;;5.55;2.83;;;18.80;96.70;;;;;;5025602;28;20045;-79
2023/09/26 03:39:59;;;;;;;3.97;3.13;;;18.80;96.70;;;;;;5023454;28;20041;-78
2023/09/26 03:42:27;;;;;;;5.07;2.63;;;18.70;96.70;;;;;;5024295;28;20044;-79
2023/09/26 03:44:55;;;;;;;4.43;2.40;;;18.90;96.70;;;;;;5027191;28;20426;-79
2023/09/26 03:47:24;;;;;;;3.50;2.28;;;19.00;96.70;;;;;;5029265;28;20511;-79
2023/09/26 03:49:53;;;;;;;4.10;2.60;;;18.90;96.70;;;;;;5025598;28;20037;-77
2023/09/26 03:52:21;;;;;;;5.13;2.72;;;19.10;96.70;;;;;;5025915;28;20865;-77
2023/09/26 03:54:51;;;;;;;4.50;2.33;;;19.00;96.70;;;;;;5026837;28;20174;-78
2023/09/26 03:57:19;;;;;;;4.55;3.00;;;18.80;96.70;;;;;;5027852;28;20040;-78
2023/09/26 03:59:49;;;;;;;4.40;2.83;;;18.90;96.70;;;;;;5032001;28;20053;-78
2023/09/26 04:02:17;;;;;;;4.75;2.55;;;18.80;96.70;;;;;;5029310;28;20076;-77
2023/09/26 04:04:45;;;;;;;5.75;2.75;;;18.80;96.70;;;;;;5012357;28;20435;-79
2023/09/26 04:07:14;;;;;;;3.90;2.92;;;18.80;96.70;;;;;;5026835;28;20037;-83
2023/09/26 04:09:42;;;;;;;4.88;3.38;;;18.90;96.70;;;;;;5028527;28;20052;-83
2023/09/26 04:12:12;;;;;;;4.32;3.17;;;18.70;96.70;;;;;;5028670;28;20053;-83
2023/09/26 04:14:42;;;;;;;4.55;2.75;;;18.70;96.70;;;;;;5010643;28;20046;-83
2023/09/26 04:17:10;;;;;;;6.53;2.60;;;18.90;96.70;;;;;;5026619;28;20049;-82
2023/09/26 04:19:39;;;;;;;2.80;2.35;;;18.80;96.70;;;;;;5028340;28;20049;-83
2023/09/26 04:22:07;;;;;;;3.42;2.58;;;18.80;96.70;;;;;;5018521;28;20547;-83
2023/09/26 04:24:35;;;;;;;3.92;2.92;;;18.80;96.70;;;;;;5028267;28;20136;-83
2023/09/26 04:27:03;;;;;;;5.25;2.80;;;18.90;96.70;;;;;;5026907;28;20045;-83
2023/09/26 04:29:35;;;;;;;4.22;2.60;;;18.80;96.70;;;;;;5026892;28;20053;-84
2023/09/26 04:32:03;;;;;;;5.68;2.58;;;18.80;96.70;;;;;;5026818;28;20060;-83
2023/09/26 04:34:32;;;;;;;4.35;2.60;;;18.60;96.70;;;;;;5026760;28;20072;-83
2023/09/26 04:37:00;;;;;;;4.63;2.78;;;18.60;96.70;;;;;;5010446;28;20077;-83
2023/09/26 04:39:29;;;;;;;6.53;3.33;;;18.70;96.70;;;;;;5007047;28;20566;-82
2023/09/26 04:41:57;;;;;;;4.75;3.30;;;18.70;96.70;;;;;;5038918;28;20487;-84
2023/09/26 04:44:25;;;;;;;5.80;2.78;;;18.70;96.70;;;;;;5026644;28;20084;-83
2023/09/26 04:46:55;;;;;;;3.03;2.35;;;18.70;96.70;;;;;;5026763;28;20056;-84
2023/09/26 04:49:24;;;;;;;6.40;2.83;;;18.80;96.70;;;;;;5010275;28;20778;-83
2023/09/26 04:51:52;;;;;;;6.07;2.45;;;18.70;96.70;;;;;;5026533;28;20047;-82
2023/09/26 04:54:20;;;;;;;6.85;2.67;;;18.80;96.70;;;;;;5028132;28;20041;-82
2023/09/26 04:56:48;;;;;;;5.25;2.92;;;18.70;96.70;;;;;;5026560;28;20541;-83
2023/09/26 04:59:16;;;;;;;4.15;2.63;;;18.70;96.70;;;;;;5030079;28;20045;-83
2023/09/26 05:01:48;;;;;;;3.75;2.30;;;18.60;96.70;;;;;;5011531;28;20050;-83
2023/09/26 05:04:18;;;;;;;6.18;2.22;;;18.50;96.70;;;;;;5032009;28;20434;-81
2023/09/26 05:06:47;;;;;;;4.75;2.25;;;18.50;96.70;;;;;;5030830;28;20053;-83
2023/09/26 05:09:15;;;;;;;3.38;2.38;;;18.60;96.70;;;;;;5031726;28;20052;-82
2023/09/26 05:11:43;;;;;;;2.53;2.08;;;18.70;96.70;;;;;;5031781;28;20045;-83
2023/09/26 05:14:11;;;;;;;6.15;2.30;;;18.70;96.70;;;;;;5032536;28;20061;-84
2023/09/26 05:16:39;;;;;;;5.47;3.15;;;18.60;96.70;;;;;;5032118;28;20522;-83
2023/09/26 05:19:07;;;;;;;5.93;2.60;;;18.70;96.70;;;;;;5032052;28;20044;-83
2023/09/26 05:21:39;;;;;;;5.38;2.45;;;18.60;96.70;;;;;;5030728;28;20388;-83
2023/09/26 05:24:07;;;;;;;3.03;1.83;;;18.50;96.70;;;;;;5030107;28;20045;-83
2023/09/26 05:26:36;;;;;;;3.33;1.45;;;18.50;96.70;;;;;;5031450;28;20064;-84
2023/09/26 05:29:04;;;;;;;5.68;2.20;;;18.50;96.70;;;;;;5029554;28;20056;-84
2023/09/26 05:31:32;;;;;;;4.53;2.05;;;18.50;96.70;;;;;;5022687;28;20095;-83
2023/09/26 05:34:00;;;;;;;3.47;1.63;;;18.60;96.70;;;;;;5037061;28;20037;-84
2023/09/26 05:36:29;;;;;;;3.97;1.92;;;18.70;96.70;;;;;;5030243;28;20044;-84
2023/09/26 05:38:58;;;;;;;5.30;2.25;;;18.60;96.70;;;;;;5029820;28;20047;-83
2023/09/26 05:41:26;;;;;;;6.10;1.90;;;18.70;96.70;;;;;;5029121;28;20056;-83
2023/09/26 05:43:55;;;;;;;4.82;1.85;;;18.60;96.70;;;;;;5030594;28;20136;-84
2023/09/26 05:46:23;;;;;;;3.13;2.00;;;18.70;96.70;;;;;;5013196;28;20042;-83
2023/09/26 05:48:51;;;;;;;3.75;1.88;;;18.70;96.70;;;;;;5012632;28;20046;-84
2023/09/26 05:51:19;;;;;;;4.63;1.77;;;18.60;96.70;;;;;;5030251;28;20041;-83
2023/09/26 05:53:47;;;;;;;5.72;2.42;;;18.70;96.70;;;;;;5029766;28;20142;-83
2023/09/26 05:56:17;;;;;;;5.97;2.17;;;18.70;96.70;;;;;;5029833;28;20462;-84
2023/09/26 05:58:46;;;;;;;5.28;2.65;;;18.70;96.70;;;;;;5020921;28;20530;-82
2023/09/26 06:01:15;;;;;;;6.10;2.90;;;18.70;96.70;;;;;;5031297;28;20076;-82
2023/09/26 06:03:43;;;;;;;5.57;2.40;;;18.70;96.70;;;;;;5029747;28;20089;-82
2023/09/26 06:06:11;;;;;;;6.50;2.38;;;18.80;96.70;;;;;;5030843;28;20037;-83
2023/09/26 06:08:39;;;;;;;6.45;2.88;;;18.80;96.70;;;;;;5013278;28;20080;-83
2023/09/26 06:11:09;;;;;;;6.20;2.67;;;18.70;96.70;;;;;;5030268;28;20384;-84
2023/09/26 06:13:39;;;;;;;7.22;2.67;;;18.70;96.70;;;;;;5030807;28;20055;-83
2023/09/26 06:16:08;;;;;;;6.75;2.53;;;18.70;96.70;;;;;;5013151;28;20481;-81
2023/09/26 06:18:36;;;;;;;6.45;2.30;;;18.80;96.70;;;;;;5012735;28;20499;-83
2023/09/26 06:21:05;;;;;;;6.13;2.80;;;18.90;96.70;;;;;;5030837;28;20041;-83
2023/09/26 06:23:33;;;;;;;6.32;3.03;;;19.00;96.70;;;;;;5029158;28;20042;-83
2023/09/26 06:26:02;;;;;;;8.10;2.78;;;19.10;96.70;;;;;;5020887;28;20411;-83
2023/09/26 06:28:31;;;;;;;6.15;2.85;;;18.90;96.70;;;;;;5012533;28;20041;-83
2023/09/26 06:31:29;;;;;;;5.90;3.22;;;18.90;96.70;;;;;;5029104;28;20124;-83
2023/09/26 06:34:00;;;;;;;9.07;3.67;;;19.10;96.70;;;;;;5027515;28;20054;-80
2023/09/26 06:36:31;;;;;;;8.65;3.08;;;19.00;96.70;;;;;;5032470;28;20041;-79
2023/09/26 06:38:59;;;;;;;7.85;3.40;;;19.10;96.70;;;;;;5033879;28;20434;-80
2023/09/26 06:41:27;;;;;;;7.03;3.50;;;19.20;96.70;;;;;;5025615;28;20034;-79
2023/09/26 06:43:56;;;;;;;5.43;2.75;;;19.20;96.70;;;;;;5028915;28;20060;-79
2023/09/26 06:46:25;;;;;;;6.55;2.65;;;19.40;96.70;;;;;;5020331;28;20041;-79
2023/09/26 06:48:53;;;;;;;8.25;2.95;;;19.50;96.70;;;;;;5029180;28;20087;-82
2023/09/26 06:51:22;;;;;;;7.18;3.33;;;19.50;96.70;;;;;;5028676;28;20045;-85
2023/09/26 06:53:50;;;;;;;6.90;3.47;;;19.60;96.70;;;;;;5030477;28;20051;-83
2023/09/26 06:56:18;;;;;;;8.20;3.50;;;19.60;96.70;;;;;;5030039;28;20049;-83
2023/09/26 06:58:46;;;;;;;7.90;2.92;;;19.70;96.70;;;;;;5029516;28;20047;-80
2023/09/26 07:01:15;;;;;;;7.90;3.58;;;19.90;96.70;;;;;;5025300;28;20057;-78
2023/09/26 07:03:46;;;;;;;8.40;3.63;;;20.10;96.70;;;;;;5025558;28;20695;-79
2023/09/26 07:06:15;;;;;;;9.43;3.42;;;20.10;96.70;;;;;;5007391;28;20558;-79
2023/09/26 07:08:43;;;;;;;8.82;4.25;;;20.20;96.70;;;;;;5027600;28;20139;-79
2023/09/26 07:11:13;;;;;;;9.07;4.10;;;20.30;96.70;;;;;;5029157;28;20112;-77
2023/09/26 07:13:47;;;;;;;8.80;4.35;;;20.30;96.70;;;;;;5024884;28;20049;-77
2023/09/26 07:16:40;;;;;;;8.10;3.80;;;20.40;96.70;;;;;;5028305;28;20392;-78
2023/09/26 07:19:22;;;;;;;6.70;3.50;;;20.40;96.70;;;;;;5024881;28;20041;-79
2023/09/26 07:21:50;;;;;;;6.38;3.38;;;20.50;96.70;;;;;;5007969;28;20115;-78
2023/09/26 07:24:27;;;;;;;8.00;3.05;;;20.60;96.70;;;;;;5025159;28;20053;-79
2023/09/26 07:27:09;;;;;;;8.05;3.58;;;20.70;96.70;;;;;;5028317;28;20052;-78
2023/09/26 07:29:38;;;;;;;5.55;2.80;;;20.80;96.70;;;;;;5026119;28;20068;-78
2023/09/26 07:32:06;;;;;;;6.13;3.45;;;20.80;96.70;;;;;;5024786;28;20038;-78
2023/09/26 07:34:36;;;;;;;7.65;3.35;;;20.80;96.70;;;;;;5009777;28;20407;-78
2023/09/26 07:37:04;;;;;;;5.78;3.00;;;20.90;96.70;;;;;;5024439;28;20495;-79
2023/09/26 07:39:35;;;;;;;7.78;4.03;;;21.00;96.70;;;;;;5026018;28;20047;-78
2023/09/26 07:42:05;;;;;;;7.05;3.67;;;21.00;96.70;;;;;;5010819;28;20537;-79
2023/09/26 07:44:33;;;;;;;5.32;3.60;;;21.10;96.70;;;;;;5009470;28;20144;-77
2023/09/26 07:47:02;;;;;;;5.85;3.42;;;21.20;96.70;;;;;;5009546;28;20053;-79
2023/09/26 07:49:30;;;;;;;12.10;4.50;;;21.30;96.70;;;;;;5010033;28;20053;-78
2023/09/26 07:52:00;;;;;;;6.53;4.00;;;21.40;96.70;;;;;;5027641;28;20041;-75
2023/09/26 07:54:28;;;;;;;9.40;4.20;;;21.50;96.70;;;;;;5025198;28;20042;-78
2023/09/26 07:56:56;;;;;;;7.70;3.78;;;21.60;96.70;;;;;;5008292;28;20395;-78
2023/09/26 07:59:24;;;;;;;6.60;3.50;;;21.70;96.70;;;;;;5025364;28;20046;-78
2023/09/26 08:01:52;;;;;;;6.63;4.40;;;21.70;96.70;;;;;;5009606;28;20046;-77
2023/09/26 08:04:20;;;;;;;5.68;3.60;;;21.80;96.70;;;;;;5025849;28;20041;-78
2023/09/26 08:06:48;;;;;;;6.13;3.13;;;21.90;96.70;;;;;;5024537;28;20053;-78
2023/09/26 08:09:17;;;;;;;6.40;2.58;;;22.00;96.70;;;;;;5025336;28;20387;-77
2023/09/26 08:11:45;;;;;;;2.95;2.13;;;22.20;96.70;;;;;;5007254;28;20050;-78
2023/09/26 08:14:13;;;;;;;3.95;2.17;;;22.40;96.70;;;;;;5018539;28;20415;-78
2023/09/26 08:16:41;;;;;;;4.25;1.90;;;22.60;96.70;;;;;;5027474;28;20599;-78
2023/09/26 08:19:09;;;;;;;3.72;1.70;;;22.80;96.70;;;;;;5024842;28;20050;-77
2023/09/26 08:21:38;;;;;;;2.65;1.70;;;22.90;96.70;;;;;;5015346;28;20049;-77
2023/09/26 08:24:06;;;;;;;3.78;1.90;;;23.00;96.70;;;;;;5022896;28;20045;-77
2023/09/26 08:26:36;;;;;;;3.50;1.55;;;23.10;96.70;;;;;;5024516;28;20087;-78
2023/09/26 08:29:07;;;;;;;4.82;2.00;;;23.30;96.70;;;;;;5006840;28;20414;-78
2023/09/26 08:31:35;;;;;;;5.32;1.85;;;23.40;96.70;;;;;;5024582;28;20049;-78
2023/09/26 08:34:03;;;;;;;4.22;1.83;;;23.60;96.70;;;;;;5021961;28;20519;-78
2023/09/26 08:36:37;;;;;;;4.57;1.55;;;23.70;96.70;;;;;;5007156;28;20061;-77
2023/09/26 08:39:05;;;;;;;3.13;1.65;;;23.80;96.70;;;;;;5024122;28;20041;-78
2023/09/26 08:41:33;;;;;;;4.25;1.20;;;23.90;96.70;;;;;;5031111;28;20086;-78
2023/09/26 08:44:03;;;;;;;3.85;1.45;;;24.00;96.70;;;;;;5025306;28;20084;-79
2023/09/26 08:46:31;;;;;;;6.50;1.40;;;24.00;96.70;;;;;;5008326;28;20399;-81
2023/09/26 08:49:02;;;;;;;4.93;1.30;;;24.10;96.70;;;;;;5015324;28;20049;-79
2023/09/26 08:51:30;;;;;;;4.10;1.20;;;24.20;96.70;;;;;;5024156;28;20606;-79
2023/09/26 08:53:58;;;;;;;2.28;0.80;;;24.30;96.70;;;;;;5030113;28;20055;-80
2023/09/26 08:56:26;;;;;;;2.40;1.10;;;24.40;96.70;;;;;;5026440;28;20049;-79
2023/09/26 08:58:55;;;;;;;4.00;0.90;;;24.50;96.70;;;;;;5010385;28;20048;-79
2023/09/26 09:01:25;;;;;;;3.80;1.08;;;24.50;96.70;;;;;;5023860;28;20104;-79
2023/09/26 09:03:53;;;;;;;3.22;0.98;;;24.60;96.70;;;;;;5039560;28;20065;-80
2023/09/26 09:06:21;;;;;;;2.20;0.90;;;24.80;96.70;;;;;;5024328;28;20041;-81
2023/09/26 09:08:49;;;;;;;2.15;1.30;;;24.90;96.70;;;;;;5023044;28;20830;-79
2023/09/26 09:11:31;;;;;;;1.98;1.20;;;25.00;96.70;;;;;;5022723;28;20033;-78
2023/09/26 09:13:59;;;;;;;3.50;1.08;;;25.10;96.70;;;;;;5038090;28;20057;-79
2023/09/26 09:16:28;;;;;;;2.78;1.30;;;25.20;96.70;;;;;;5023158;28;20490;-80
2023/09/26 09:18:58;;;;;;;1.65;0.90;;;25.20;96.70;;;;;;5027409;28;20478;-80
2023/09/26 09:21:30;;;;;;;3.08;0.88;;;25.30;96.70;;;;;;5023575;28;20045;-80
2023/09/26 09:24:01;;;;;;;2.70;1.10;;;25.30;96.70;;;;;;5023054;28;20809;-81
2023/09/26 09:26:31;;;;;;;1.60;1.13;;;25.40;96.70;;;;;;5023582;28;20053;-78
2023/09/26 09:29:16;;;;;;;5.50;1.30;;;25.50;96.70;;;;;;5030246;28;20909;-79
2023/09/26 09:31:45;;;;;;;2.22;1.00;;;25.60;96.70;;;;;;5024667;28;20463;-80
2023/09/26 09:34:15;;;;;;;1.83;1.23;;;25.60;96.70;;;;;;5023968;28;20057;-79
2023/09/26 09:36:44;;;;;;;3.45;1.20;;;25.60;96.70;;;;;;5024076;28;20059;-78
2023/09/26 09:39:13;;;;;;;5.38;1.08;;;25.60;96.70;;;;;;5021960;28;20124;-80
2023/09/26 09:41:41;;;;;;;4.78;0.85;;;25.70;96.70;;;;;;5022674;28;20045;-79
2023/09/26 09:44:08;;;;;;;6.03;0.95;;;25.70;96.70;;;;;;5022922;28;20037;-79
2023/09/26 09:46:38;;;;;;;3.22;1.38;;;25.70;96.70;;;;;;5026397;28;20049;-79
2023/09/26 09:49:10;;;;;;;4.63;0.90;;;25.80;96.70;;;;;;5020420;28;20052;-79
2023/09/26 09:51:45;;;;;;;1.95;0.98;;;25.70;96.70;;;;;;5026317;28;20169;-79
2023/09/26 09:54:17;;;;;;;2.30;0.98;;;25.70;96.70;;;;;;5026340;28;20162;-78
2023/09/26 09:56:46;;;;;;;1.90;1.02;;;25.80;96.70;;;;;;5027802;28;20041;-78
2023/09/26 09:59:16;;;;;;;2.72;0.95;;;25.80;96.70;;;;;;5058968;28;20046;-80
2023/09/26 10:01:45;;;;;;;2.15;1.25;;;25.90;96.70;;;;;;5031473;28;20048;-78
2023/09/26 10:04:16;;;;;;;3.75;1.15;;;26.00;96.70;;;;;;5026000;28;20123;-79
2023/09/26 10:06:45;;;;;;;2.80;1.20;;;26.10;96.70;;;;;;5026176;28;20045;-79
2023/09/26 10:09:16;;;;;;;1.58;1.15;;;26.00;96.70;;;;;;5026033;28;20047;-78
2023/09/26 10:11:44;;;;;;;1.40;0.98;;;26.10;96.70;;;;;;5008210;28;20069;-80
2023/09/26 10:14:19;;;;;;;2.85;1.00;;;26.10;96.70;;;;;;5026694;28;20148;-79
2023/09/26 10:16:47;;;;;;;4.00;1.43;;;26.20;96.70;;;;;;5026289;28;20081;-79
2023/09/26 10:19:17;;;;;;;3.03;1.40;;;26.10;96.70;;;;;;5025925;28;20041;-79
2023/09/26 10:21:52;;;;;;;3.80;1.42;;;26.30;96.70;;;;;;5025291;28;20059;-79
2023/09/26 10:24:27;;;;;;;2.92;1.20;;;26.30;96.70;;;;;;5026877;28;20460;-79
2023/09/26 10:26:59;;;;;;;2.03;1.10;;;26.20;96.70;;;;;;5025374;28;20474;-80
2023/09/26 10:29:37;;;;;;;3.30;1.50;;;26.20;96.70;;;;;;5010273;28;20103;-80
2023/09/26 10:32:07;;;;;;;2.50;1.20;;;26.30;96.70;;;;;;5026724;28;20061;-80
2023/09/26 10:34:37;;;;;;;2.65;1.70;;;26.40;96.70;;;;;;5017194;28;20139;-79
2023/09/26 10:37:27;;;;;;;3.47;1.63;;;26.40;96.70;;;;;;5025028;28;20084;-79
2023/09/26 10:39:55;;;;;;;3.30;1.40;;;26.60;96.70;;;;;;5024965;28;20087;-78
2023/09/26 10:42:24;;;;;;;3.15;1.30;;;26.60;96.70;;;;;;5024824;28;20104;-80
2023/09/26 10:45:13;;;;;;;2.38;1.50;;;26.80;96.70;;;;;;5011514;28;20427;-79
2023/09/26 10:47:42;;;;;;;2.08;1.38;;;26.90;96.70;;;;;;5025363;28;20041;-79
2023/09/26 10:50:14;;;;;;;4.15;1.98;;;26.90;96.70;;;;;;5026222;28;20049;-80
2023/09/26 10:52:48;;;;;;;3.85;1.52;;;27.00;96.70;;;;;;5049494;28;20124;-79
2023/09/26 10:55:18;;;;;;;4.38;1.30;;;27.10;96.70;;;;;;5026195;28;20060;-79
2023/09/26 10:58:06;;;;;;;2.20;1.77;;;27.20;96.70;;;;;;5025804;28;20049;-79
2023/09/26 11:00:34;;;;;;;2.80;1.63;;;27.30;96.70;;;;;;5025737;28;20530;-78
2023/09/26 11:03:04;;;;;;;4.95;2.00;;;27.20;96.70;;;;;;5024742;28;21203;-79
2023/09/26 11:05:35;;;;;;;3.85;1.60;;;27.20;96.70;;;;;;5024996;28;20050;-79
2023/09/26 11:08:04;;;;;;;4.53;1.88;;;27.40;96.70;;;;;;5025692;28;20132;-79
2023/09/26 11:10:37;;;;;;;2.50;1.35;;;27.60;96.70;;;;;;5024364;28;20463;-79
2023/09/26 11:13:06;;;;;;;3.42;1.98;;;27.70;96.70;;;;;;5024610;28;20498;-79
2023/09/26 11:15:37;;;;;;;2.40;1.50;;;27.70;96.70;;;;;;5024928;28;20067;-79
2023/09/26 11:18:10;;;;;;;2.42;1.27;;;27.70;96.70;;;;;;5024892;28;20518;-79
2023/09/26 11:20:40;;;;;;;3.80;1.60;;;27.60;96.70;;;;;;5026621;28;20041;-80
2023/09/26 11:23:35;;;;;;;2.90;1.45;;;27.60;96.70;;;;;;5018033;28;20041;-79
2023/09/26 11:26:04;;;;;;;3.03;1.40;;;27.60;96.70;;;;;;5024517;28;20049;-78
2023/09/26 11:28:34;;;;;;;4.00;1.80;;;27.40;96.70;;;;;;5024221;28;20065;-79
2023/09/26 11:31:02;;;;;;;3.42;1.60;;;27.50;96.70;;;;;;5024696;28;20041;-79
2023/09/26 11:33:31;;;;;;;4.03;1.80;;;27.60;96.70;;;;;;5023164;28;20096;-79
2023/09/26 11:36:02;;;;;;;3.25;1.60;;;27.60;96.70;;;;;;5027381;28;20052;-79
2023/09/26 11:38:31;;;;;;;5.05;2.00;;;27.60;96.70;;;;;;5023405;28;20041;-79
2023/09/26 11:40:59;;;;;;;3.00;1.92;;;27.50;96.70;;;;;;5008049;28;20049;-79
2023/09/26 11:43:37;;;;;;;4.45;2.30;;;27.50;96.70;;;;;;5023682;28;20046;-79
2023/09/26 11:46:06;;;;;;;2.88;2.08;;;27.80;96.70;;;;;;5025471;28;20045;-79
2023/09/26 11:48:34;;;;;;;4.68;1.90;;;28.00;96.70;;;;;;5025185;28;20041;-79
2023/09/26 11:51:04;;;;;;;3.67;1.77;;;28.00;96.70;;;;;;5008642;28;20052;-79
2023/09/26 11:53:33;;;;;;;2.10;1.90;;;28.10;96.70;;;;;;5024437;28;20057;-80
2023/09/26 11:56:04;;;;;;;3.75;2.60;;;28.30;96.70;;;;;;5023891;28;20041;-79
2023/09/26 11:58:33;;;;;;;3.97;2.40;;;28.30;96.70;;;;;;5016347;28;20057;-80
2023/09/26 12:01:01;;;;;;;2.55;1.90;;;28.20;96.70;;;;;;5015914;28;20115;-79
2023/09/26 12:03:29;;;;;;;3.38;2.33;;;28.20;96.70;;;;;;5023819;28;20064;-78
2023/09/26 12:05:57;;;;;;;3.30;2.30;;;28.40;96.70;;;;;;5024545;28;20060;-79
2023/09/26 12:08:29;;;;;;;4.18;2.45;;;28.40;96.70;;;;;;5023591;28;20585;-79
2023/09/26 12:10:57;;;;;;;3.45;2.03;;;28.50;96.70;;;;;;5023631;28;20057;-80
2023/09/26 12:13:25;;;;;;;2.42;1.98;;;28.40;96.70;;;;;;5023601;28;20037;-79
2023/09/26 12:15:53;;;;;;;3.08;2.47;;;28.50;96.70;;;;;;5024317;28;20053;-80
2023/09/26 12:18:22;;;;;;;5.47;2.25;;;28.40;96.70;;;;;;5004556;28;20045;-79
2023/09/26 12:20:55;;;;;;;2.67;2.28;;;28.30;96.70;;;;;;5025757;28;20046;-79
2023/09/26 12:23:24;;;;;;;3.72;2.08;;;28.50;96.70;;;;;;5022714;28;20050;-80
2023/09/26 12:25:55;;;;;;;3.75;2.80;;;28.50;96.70;;;;;;5025035;28;20459;-79
2023/09/26 12:28:23;;;;;;;2.53;2.15;;;28.60;96.70;;;;;;5023518;28;20045;-79
2023/09/26 12:30:52;;;;;;;3.60;2.40;;;28.60;96.70;;;;;;5024438;28;20041;-80
2023/09/26 12:33:21;;;;;;;3.53;2.20;;;28.50;96.70;;;;;;5024588;28;20147;-80
2023/09/26 12:35:50;;;;;;;3.78;1.73;;;28.70;96.70;;;;;;5025103;28;20060;-79
2023/09/26 12:38:18;;;;;;;3.17;2.22;;;28.60;96.70;;;;;;5023477;28;20660;-79
2023/09/26 12:40:59;;;;;;;4.38;2.28;;;28.60;96.70;;;;;;5024739;28;20052;-78
2023/09/26 12:43:28;;;;;;;4.28;2.50;;;28.60;96.70;;;;;;5023224;28;20333;-80
2023/09/26 12:45:56;;;;;;;4.38;2.67;;;28.50;96.70;;;;;;5024025;28;20041;-80
2023/09/26 12:48:24;;;;;;;2.72;2.22;;;28.50;96.70;;;;;;5025033;28;20041;-79
2023/09/26 12:50:52;;;;;;;4.50;2.70;;;28.40;96.70;;;;;;5023816;28;20041;-79
2023/09/26 12:53:20;;;;;;;4.45;2.30;;;28.50;96.70;;;;;;5023144;28;20459;-76
2023/09/26 12:55:48;;;;;;;5.13;2.75;;;28.60;96.70;;;;;;5022713;28;20045;-76
2023/09/26 12:58:18;;;;;;;5.45;2.65;;;28.70;96.70;;;;;;5022760;28;20037;-77
2023/09/26 13:00:46;;;;;;;3.00;2.30;;;28.60;96.70;;;;;;5022754;28;20156;-78